Atwood-Rawlins County City Airport


Codes: KADT/
Name: Atwood-Rawlins County City Airport
City: Atwood
Country: United States
Elevation: 2991 ft.

Photos at Atwood-Rawlins County City Airport


   Photos courtesy of SpottingLog. You can add your own sightings and photos by signing up for a free trial today.



No photos found.

Weather at Atwood-Rawlins County City Airport


Time (UTC)DescriptionTempratureWindCloud coverageVisibilityPressureHumidity
21-Jun-2024 15:00Clear Sky23°C22 mph, S3%10000m1013hPa69%
21-Jun-2024 18:00Clear Sky28°C22 mph, S2%10000m1011hPa51%
21-Jun-2024 21:00Scattered Clouds36°C25 mph, S40%10000m1007hPa29%
22-Jun-2024 00:00Broken Clouds33°C25 mph, S61%10000m1005hPa35%
22-Jun-2024 03:00Broken Clouds30°C25 mph, S63%10000m1006hPa42%
22-Jun-2024 06:00Light Rain24°C11 mph, W72%10000m1009hPa63%
22-Jun-2024 09:00Broken Clouds22°C7 mph, NW68%10000m1009hPa73%
22-Jun-2024 12:00Broken Clouds22°C9 mph, NW81%10000m1010hPa72%
22-Jun-2024 15:00Overcast Clouds26°C16 mph, NW100%10000m1010hPa49%
22-Jun-2024 18:00Overcast Clouds31°C16 mph, NW100%10000m1010hPa34%
22-Jun-2024 21:00Overcast Clouds34°C13 mph, NW100%10000m1009hPa24%
23-Jun-2024 00:00Broken Clouds33°C9 mph, N75%10000m1008hPa23%
23-Jun-2024 03:00Clear Sky26°C7 mph, NE4%10000m1011hPa40%
23-Jun-2024 06:00Few Clouds23°C9 mph, SE14%10000m1012hPa62%
23-Jun-2024 09:00Scattered Clouds21°C9 mph, S25%10000m1012hPa75%
23-Jun-2024 12:00Scattered Clouds21°C11 mph, S30%10000m1012hPa81%
23-Jun-2024 15:00Clear Sky30°C16 mph, SW3%10000m1011hPa44%
23-Jun-2024 18:00Clear Sky37°C13 mph, SW2%10000m1008hPa20%
23-Jun-2024 21:00Clear Sky40°C11 mph, SW10%10000m1005hPa16%
24-Jun-2024 00:00Scattered Clouds34°C20 mph, SW40%10000m1005hPa26%
24-Jun-2024 03:00Broken Clouds28°C13 mph, S77%10000m1007hPa37%
24-Jun-2024 06:00Overcast Clouds26°C11 mph, S88%10000m1007hPa44%
24-Jun-2024 09:00Scattered Clouds24°C11 mph, SW31%10000m1006hPa51%
24-Jun-2024 12:00Few Clouds24°C9 mph, SW15%10000m1006hPa47%
24-Jun-2024 15:00Clear Sky33°C13 mph, SW1%10000m1005hPa30%
24-Jun-2024 18:00Scattered Clouds38°C11 mph, S42%10000m1003hPa21%
24-Jun-2024 21:00Overcast Clouds40°C9 mph, S93%10000m1000hPa15%
25-Jun-2024 00:00Broken Clouds40°C16 mph, S72%10000m998hPa16%
25-Jun-2024 03:00Light Rain27°C27 mph, W84%10000m1004hPa45%
25-Jun-2024 06:00Light Rain28°C4 mph, W92%10000m1002hPa29%
25-Jun-2024 09:00Broken Clouds25°C4 mph, SW83%10000m1002hPa43%
25-Jun-2024 12:00Broken Clouds24°C11 mph, SW84%10000m1005hPa48%
25-Jun-2024 15:00Overcast Clouds30°C16 mph, NW100%10000m1005hPa29%
25-Jun-2024 18:00Overcast Clouds34°C18 mph, N99%10000m1005hPa25%
25-Jun-2024 21:00Broken Clouds36°C18 mph, NE81%10000m1005hPa26%
26-Jun-2024 00:00Scattered Clouds33°C16 mph, NE42%10000m1006hPa31%
26-Jun-2024 03:00Clear Sky26°C13 mph, NE0%10000m1011hPa59%
26-Jun-2024 06:00Scattered Clouds23°C11 mph, E33%10000m1012hPa64%
26-Jun-2024 09:00Few Clouds20°C7 mph, SE20%10000m1013hPa65%
26-Jun-2024 12:00Light Rain20°C4 mph, SW43%10000m1014hPa70%